Flight Track Log - Related Links

Times and Time Zones

All times are in EDT time to prevent confusion due to time zone crossing. See the EGF3395 flight status page for this flight to view local times or setup timezone preferences in your user account.

Time Position Orientation Groundspeed Altitude Reporting Facility
EDT Latitude Longitude Course Direction KTS MPH feet Rate Location/Type
Mon 06:06:32 AM 32.9458 -80.1028 276° West 240 276 2,900  Level Jacksonville Center
Mon 06:07:00 AM 32.9333 -80.3144 270° West  Level FlightAware Approximate
Mon 06:07:32 AM 32.9497 -80.1869 273° West 283 326 5,000  Level Jacksonville Center
Mon 06:08:00 AM 32.9333 -80.4240 270° West  Level FlightAware Approximate
Mon 06:08:32 AM 32.9433 -80.2786 265° West 288 331 7,600  Level Jacksonville Center
Mon 06:09:00 AM 32.9349 -80.5335 276° West  Level FlightAware Approximate
Mon 06:09:32 AM 32.9408 -80.3678 268° West 288 331 10,000  Level Jacksonville Center
Mon 06:10:00 AM 32.9448 -80.6424 276° West  Level FlightAware Approximate
Mon 06:10:32 AM 32.9386 -80.4619 268° West 282 325 11,700  Level Jacksonville Center
Mon 06:11:00 AM 32.9546 -80.7507 276° West  Level FlightAware Approximate
Mon 06:11:32 AM 32.9425 -80.5633 273° West 294 338 13,100  Level Jacksonville Center
Mon 06:12:32 AM 32.9528 -80.6647 277° West 306 352 14,700 1,600 Climbing Jacksonville Center
Mon 06:13:32 AM 32.9356 -80.7664 259° West 312 359 16,300 1,600 Climbing Jacksonville Center
Mon 06:14:32 AM 32.9164 -80.8683 257° West 312 359 17,900 1,600 Climbing Jacksonville Center
Mon 06:15:32 AM 32.8992 -80.9678 258° West 312 359 19,500 1,650 Climbing Jacksonville Center
Mon 06:16:32 AM 32.8819 -81.0694 259° West 317 365 21,200 1,550 Climbing Jacksonville Center
Mon 06:17:32 AM 32.8644 -81.1689 258° West 317 365 22,600 1,700 Climbing Jacksonville Center
Mon 06:18:32 AM 32.8492 -81.2631 259° West 312 359 24,600 1,800 Climbing Jacksonville Center
Mon 06:20:52 AM 32.8094 -81.4733 257° West 275 316 28,600 1,612 Climbing Atlanta Center
Mon 06:21:53 AM 32.7967 -81.5603 260° West 275 316 30,000 1,550 Climbing Atlanta Center
Mon 06:22:52 AM 32.7775 -81.6572 257° West 275 316 31,700 1,412 Climbing Atlanta Center
Mon 06:23:52 AM 32.7606 -81.7442 257° West 275 316 32,800 1,000 Climbing Atlanta Center
Mon 06:24:52 AM 32.7453 -81.8283 258° West 275 316 33,700 950 Climbing Atlanta Center
Mon 06:25:52 AM 32.7303 -81.9203 259° West 281 323 34,700 942 Climbing Atlanta Center
Mon 06:26:53 AM 32.7128 -82.0069 257° West 281 323 35,600 650 Climbing Atlanta Center
Mon 06:27:52 AM 32.6956 -82.0989 257° West 281 323 36,000 202 Climbing Atlanta Center
Mon 06:28:52 AM 32.6783 -82.1953 258° West 286 329 36,000  Level Atlanta Center
Mon 06:29:52 AM 32.6589 -82.2994 258° West 303 349 36,000  Level Atlanta Center
Mon 06:30:52 AM 32.6397 -82.4108 258° West 329 379 36,000  Level Atlanta Center
Mon 06:31:52 AM 32.6203 -82.5247 259° West 342 394 36,000  Level Atlanta Center
Mon 06:32:52 AM 32.5986 -82.6333 257° West 342 394 36,000  Level Atlanta Center
Mon 06:33:52 AM 32.5767 -82.7447 257° West 347 399 36,000  Level Atlanta Center
Mon 06:34:52 AM 32.5592 -82.8583 260° West 347 399 36,000  Level Atlanta Center
Mon 06:35:52 AM 32.5517 -82.9594 265° West 352 405 36,000  Level Atlanta Center
Mon 06:36:52 AM 32.5403 -83.0756 263° West 352 405 36,000  Level Atlanta Center
Mon 06:37:52 AM 32.5347 -83.1936 267° West 352 405 36,000  Level Atlanta Center
Mon 06:38:52 AM 32.5231 -83.3072 263° West 352 405 36,000  Level Atlanta Center
Mon 06:39:52 AM 32.5111 -83.4256 263° West 357 411 36,000  Level Atlanta Center
Mon 06:40:52 AM 32.5033 -83.5389 265° West 357 411 36,000  Level Atlanta Center
Mon 06:41:52 AM 32.4911 -83.6547 263° West 357 411 36,000  Level Atlanta Center
Mon 06:42:52 AM 32.4831 -83.7703 265° West 352 405 36,000  Level Atlanta Center
Mon 06:43:52 AM 32.4708 -83.8836 263° West 352 405 36,000  Level Atlanta Center
Mon 06:44:52 AM 32.4606 -83.9994 264° West 352 405 36,000  Level Atlanta Center
Mon 06:45:52 AM 32.4500 -84.1128 264° West 352 405 36,000  Level Atlanta Center
Mon 06:46:52 AM 32.4372 -84.2283 263° West 352 405 36,000  Level Atlanta Center
Mon 06:47:52 AM 32.4267 -84.3439 264° West 352 405 36,000  Level Atlanta Center
Mon 06:48:52 AM 32.4158 -84.4597 264° West 352 405 36,000  Level Atlanta Center
Mon 06:49:52 AM 32.4050 -84.5728 264° West 352 405 36,000  Level Atlanta Center
Mon 06:50:52 AM 32.3942 -84.6883 264° West 352 405 36,000  Level Atlanta Center
Mon 06:51:52 AM 32.3831 -84.7989 263° West 352 405 36,000  Level Atlanta Center
Mon 06:52:52 AM 32.3678 -84.9069 261° West 346 398 36,000  Level Atlanta Center
Mon 06:53:52 AM 32.3606 -85.0225 266° West 346 398 36,000  Level Atlanta Center
Mon 06:54:52 AM 32.3469 -85.1378 262° West 351 404 36,000  Level Atlanta Center
Mon 06:55:53 AM 32.3333 -85.2508 262° West 351 404 36,000  Level Atlanta Center
Mon 06:56:52 AM 32.3239 -85.3636 264° West 351 404 36,000  Level Atlanta Center
Mon 06:57:52 AM 32.3122 -85.4767 263° West 351 404 36,000  Level Atlanta Center
Mon 06:58:52 AM 32.3003 -85.5919 263° West 351 404 36,000  Level Atlanta Center
Mon 06:59:52 AM 32.2883 -85.7097 263° West 351 404 36,000  Level Atlanta Center
Mon 07:00:52 AM 32.2722 -85.8247 261° West 356 410 36,000  Level Atlanta Center
Mon 07:01:52 AM 32.2642 -85.9350 265° West 356 410 36,000  Level Atlanta Center
Mon 07:02:52 AM 32.2478 -86.0525 261° West 356 410 36,000  Level Atlanta Center
Mon 07:03:52 AM 32.2353 -86.1775 263° West 356 410 36,000  Level Atlanta Center
Mon 07:04:52 AM 32.2314 -86.2831 268° West 356 410 36,000  Level Atlanta Center
Mon 07:05:52 AM 32.2253 -86.3883 266° West 361 415 36,000  Level Atlanta Center
Mon 07:06:52 AM 32.2414 -86.5167 278° West 355 409 36,000  Level Atlanta Center
Mon 07:07:52 AM 32.2475 -86.6272 274° West 355 409 36,000  Level Atlanta Center
Mon 07:08:52 AM 32.2533 -86.7528 273° West 350 403 36,000  Level Atlanta Center
Mon 07:09:52 AM 32.2611 -86.8633 275° West 350 403 36,000  Level Atlanta Center
Mon 07:10:52 AM 32.2669 -86.9767 274° West 350 403 36,000  Level Atlanta Center
Mon 07:11:53 AM 32.2764 -87.0947 275° West 350 403 36,000  Level Atlanta Center
Mon 07:12:52 AM 32.2861 -87.2058 276° West 350 403 36,000  Level Atlanta Center
Mon 07:13:52 AM 32.2917 -87.3189 273° West 350 403 36,000  Level Atlanta Center
Mon 07:14:52 AM 32.3011 -87.4275 276° West 355 409 36,000  Level Atlanta Center
Mon 07:15:52 AM 32.3086 -87.5408 275° West 355 409 36,000  Level Atlanta Center
Mon 07:16:52 AM 32.3156 -87.6564 274° West 355 409 36,000  Level Atlanta Center
Mon 07:17:52 AM 32.3228 -87.7697 274° West 349 402 36,000  Level Atlanta Center
Mon 07:20:09 AM 32.3372 -88.0461 274° West 346 398 36,000  Level Memphis Center
Mon 07:21:09 AM 32.3436 -88.1592 274° West 346 398 36,000  Level Memphis Center
Mon 07:22:09 AM 32.3497 -88.2769 274° West 346 398 36,000  Level Memphis Center
Mon 07:23:09 AM 32.3558 -88.3925 274° West 346 398 36,000  Level Memphis Center
Mon 07:24:09 AM 32.3617 -88.5053 274° West 346 398 36,000  Level Memphis Center
Mon 07:25:09 AM 32.3672 -88.6061 274° West 346 398 36,000  Level Memphis Center
Mon 07:26:09 AM 32.3750 -88.7217 275° West 346 398 36,000  Level Memphis Center
Mon 07:27:09 AM 32.3808 -88.8369 273° West 346 398 36,000  Level Memphis Center
Mon 07:28:09 AM 32.3864 -88.9550 273° West 351 404 36,000  Level Memphis Center
Mon 07:29:09 AM 32.3958 -89.0706 276° West 351 404 36,000  Level Memphis Center
Mon 07:30:09 AM 32.3992 -89.1886 272° West 356 410 36,000  Level Memphis Center
Mon 07:31:09 AM 32.4064 -89.3042 274° West 356 410 36,000  Level Memphis Center
Mon 07:32:09 AM 32.4094 -89.4197 272° West 356 410 36,000  Level Memphis Center
Mon 07:33:09 AM 32.4167 -89.5353 274° West 356 410 36,000  Level Memphis Center
Mon 07:34:09 AM 32.4236 -89.6558 274° West 356 410 36,000  Level Memphis Center
Mon 07:35:09 AM 32.4283 -89.7717 273° West 361 415 36,000  Level Memphis Center
Mon 07:36:09 AM 32.4331 -89.8872 273° West 361 415 36,000  Level Memphis Center
Mon 07:37:09 AM 32.4375 -90.0078 273° West 361 415 36,000  Level Memphis Center
Mon 07:38:09 AM 32.4461 -90.1258 275° West 361 415 36,000  Level Memphis Center
Mon 07:39:09 AM 32.4506 -90.2442 273° West 361 415 36,000  Level Memphis Center
Mon 07:40:09 AM 32.4547 -90.3622 272° West 361 415 36,000  Level Memphis Center
Mon 07:41:09 AM 32.4589 -90.4828 272° West 361 415 36,000  Level Memphis Center
Mon 07:42:09 AM 32.4650 -90.5986 274° West 361 415 36,000  Level Memphis Center
Mon 07:43:09 AM 32.4689 -90.7144 272° West 361 415 36,000 -150 Level Memphis Center
Mon 07:44:09 AM 32.4728 -90.8300 272° West 361 415 35,700 -500 Descending Memphis Center
Mon 07:45:09 AM 32.4783 -90.9656 273° West 366 421 35,000 -600 Descending Memphis Center
Mon 07:46:09 AM 32.4819 -91.0864 272° West 366 421 34,500 -500 Descending Memphis Center
Mon 07:47:09 AM 32.4875 -91.2019 273° West 366 421 34,000 -250 Descending Memphis Center
Mon 07:48:09 AM 32.4931 -91.3131 273° West 356 410 34,000  Level Memphis Center
Mon 07:49:42 AM 32.4994 -91.4825 273° West 325 374 34,000  Level Fort Worth Center
Mon 07:50:42 AM 32.5025 -91.5931 272° West 330 380 34,000  Level Fort Worth Center
Mon 07:51:42 AM 32.5078 -91.7061 273° West 335 386 34,000  Level Fort Worth Center
Mon 07:52:42 AM 32.5106 -91.8142 272° West 335 386 34,000  Level Fort Worth Center
Mon 07:53:42 AM 32.5156 -91.9297 273° West 345 397 34,000  Level Fort Worth Center
Mon 07:54:42 AM 32.5181 -92.0381 272° West 345 397 34,000  Level Fort Worth Center
Mon 07:55:42 AM 32.5106 -92.1517 266° West 345 397 34,000  Level Fort Worth Center
Mon 07:56:42 AM 32.5025 -92.2631 265° West 345 397 34,000  Level Fort Worth Center
Mon 07:57:42 AM 32.4947 -92.3767 265° West 351 404 34,000  Level Fort Worth Center
Mon 07:58:42 AM 32.4903 -92.4803 267° West 344 396 34,000  Level Fort Worth Center
Mon 07:59:42 AM 32.4819 -92.5892 265° West 334 384 34,000  Level Fort Worth Center
Mon 08:00:42 AM 32.4717 -92.7006 264° West 334 384 34,000  Level Fort Worth Center
Mon 08:01:42 AM 32.4650 -92.8042 266° West 334 384 34,000  Level Fort Worth Center
Mon 08:02:42 AM 32.4567 -92.9156 265° West 334 384 34,000  Level Fort Worth Center
Mon 08:03:42 AM 32.4458 -93.0267 263° West 334 384 34,000  Level Fort Worth Center
Mon 08:04:42 AM 32.4372 -93.1356 265° West 334 384 34,000  Level Fort Worth Center
Mon 08:05:42 AM 32.4303 -93.2417 266° West 334 384 34,000  Level Fort Worth Center
Mon 08:06:42 AM 32.4192 -93.3503 263° West 334 384 34,000  Level Fort Worth Center
Mon 08:07:42 AM 32.4100 -93.4567 264° West 334 384 34,000  Level Fort Worth Center
Mon 08:08:42 AM 32.4031 -93.5628 266° West 334 384 34,000  Level Fort Worth Center
Mon 08:09:42 AM 32.3975 -93.6614 266° West 334 384 34,000  Level Fort Worth Center
Mon 08:10:42 AM 32.4047 -93.7644 275° West 328 377 34,000  Level Fort Worth Center
Mon 08:11:42 AM 32.4061 -93.8800 271° West 334 384 34,000  Level Fort Worth Center
Mon 08:12:42 AM 32.4069 -93.9906 271° West 334 384 34,000  Level Fort Worth Center
Mon 08:13:42 AM 32.4078 -94.0964 271° West 334 384 34,000  Level Fort Worth Center
Mon 08:14:42 AM 32.4086 -94.2094 271° West 334 384 34,000  Level Fort Worth Center
Mon 08:15:42 AM 32.4094 -94.3253 271° West 340 391 34,000  Level Fort Worth Center
Mon 08:16:42 AM 32.4119 -94.4358 272° West 346 398 34,000  Level Fort Worth Center
Mon 08:17:42 AM 32.4147 -94.5464 272° West 341 392 34,000  Level Fort Worth Center
Mon 08:18:42 AM 32.4150 -94.6597 270° West 346 398 34,000  Level Fort Worth Center
Mon 08:19:42 AM 32.4111 -94.7706 268° West 346 398 34,000  Level Fort Worth Center
Mon 08:20:42 AM 32.3969 -94.8892 262° West 352 405 34,000 -650 Level Fort Worth Center
Mon 08:21:42 AM 32.3764 -95.0175 259° West 357 411 32,700 -1,400 Descending Fort Worth Center
Mon 08:22:42 AM 32.3600 -95.1408 261° West 376 433 31,200 -1,550 Descending Fort Worth Center
Mon 08:23:42 AM 32.3392 -95.2717 259° West 395 455 29,600 -1,700 Descending Fort Worth Center
Mon 08:24:42 AM 32.3164 -95.4025 258° West 402 463 27,800 -1,850 Descending Fort Worth Center
Mon 08:25:42 AM 32.2975 -95.5308 260° West 413 475 25,900 -1,850 Descending Fort Worth Center
Mon 08:26:42 AM 32.2764 -95.6614 259° West 408 470 24,100 -1,850 Descending Fort Worth Center
Mon 08:27:42 AM 32.2572 -95.7869 260° West 408 470 22,200 -1,850 Descending Fort Worth Center
Mon 08:28:42 AM 32.2358 -95.9128 259° West 402 463 20,400 -1,700 Descending Fort Worth Center
Mon 08:29:42 AM 32.2244 -96.0258 263° West 388 447 18,800 -1,750 Descending Fort Worth Center
Mon 08:30:42 AM 32.2633 -96.1481 291° West 365 420 16,900 -1,800 Descending Fort Worth Center
Mon 08:31:42 AM 32.3019 -96.2433 296° West 365 420 15,200 -1,700 Descending Fort Worth Center
Mon 08:32:42 AM 32.3447 -96.3536 295° West 345 397 13,500 -1,550 Descending Fort Worth Center
Mon 08:33:42 AM 32.3786 -96.4369 296° West 335 386 12,100 -1,250 Descending Fort Worth Center
Mon 08:34:42 AM 32.4397 -96.5222 310° West 309 356 11,000 -550 Descending Fort Worth Center
Mon 08:35:42 AM 32.4903 -96.5808 316° Northwest 289 333 11,000  Level Fort Worth Center
Mon 08:36:42 AM 32.5492 -96.6494 316° Northwest 276 318 11,000  Level Fort Worth Center
Mon 08:37:42 AM 32.5956 -96.7058 314° West 271 312 11,000  Level Fort Worth Center
Mon 08:38:42 AM 32.6564 -96.7767 316° Northwest 271 312 11,000  Level Fort Worth Center
Mon 08:39:16 AM 32.6833 -96.8167 309° West 249 287 11,000  Level Dallas / Fort Worth TRACON
Mon 08:40:16 AM 32.7333 -96.8667 320° Northwest 229 264 11,000  Level Dallas / Fort Worth TRACON
Mon 08:41:17 AM 32.7833 -96.9000 331° Northwest 232 267 11,000 -425 Level Dallas / Fort Worth TRACON
Mon 08:42:23 AM 32.8500 -96.9000 360° North 234 269 10,100 -1,339 Descending Dallas / Fort Worth TRACON
Mon 08:43:18 AM 32.9167 -96.9000 360° North 246 283 8,300 -1,930 Descending Dallas / Fort Worth TRACON
Mon 08:44:18 AM 32.9667 -96.9167 344° North 234 269 6,400 -1,150 Descending Dallas / Fort Worth TRACON
Mon 08:45:18 AM 33.0333 -96.9333 348° North 224 258 6,000 -678 Descending Dallas / Fort Worth TRACON
Mon 08:46:13 AM 33.1000 -96.9333 360° North 227 261 5,100 -1,409 Descending Dallas / Fort Worth TRACON
Mon 08:47:13 AM 33.1500 -96.9667 331° Northwest 229 264 3,300 -1,050 Descending Dallas / Fort Worth TRACON
Mon 08:48:13 AM 33.1167 -97.0167 231° Southwest 166 191 3,000 -149 Descending Dallas / Fort Worth TRACON
Mon 08:49:14 AM 33.0833 -97.0333 203° Southwest 158 182 3,000 -50 Level Dallas / Fort Worth TRACON
Mon 08:50:14 AM 33.0333 -97.0333 180° South 159 183 2,900 -100 Descending Dallas / Fort Worth TRACON

Login

Don't have an account? Register now (free) for customized features, flight alerts, and more!